createdAt,value
2022-08-03T00:01:48.508Z,101426.53
2022-08-03T00:04:14.978Z,101426.53
2022-08-03T00:06:41.407Z,101425.66
2022-08-03T00:09:07.926Z,101425.81
2022-08-03T00:11:35.121Z,101424.81
2022-08-03T00:14:01.789Z,101421.34
2022-08-03T00:16:28.391Z,101419.59
2022-08-03T00:18:54.801Z,101427.94
2022-08-03T00:21:21.204Z,101431.41
2022-08-03T00:23:51.716Z,101432.31
2022-08-03T00:26:22.443Z,101423.63
2022-08-03T00:28:49.713Z,101428.38
2022-08-03T00:31:16.537Z,101413.41
2022-08-03T00:33:59.629Z,101427.09
2022-08-03T00:36:27.217Z,101424.22
2022-08-03T00:38:53.791Z,101420.31
2022-08-03T00:41:20.389Z,101411.84
2022-08-03T00:43:47.667Z,101411.84
2022-08-03T00:46:19.030Z,101418.44
2022-08-03T00:48:47.233Z,101410.66
2022-08-03T00:51:13.828Z,101411.81
2022-08-03T00:53:40.954Z,101409.69
2022-08-03T00:56:07.444Z,101411.69
2022-08-03T00:58:33.926Z,101407.22
2022-08-03T01:01:00.554Z,101405.50
2022-08-03T01:03:27.029Z,101405.50
2022-08-03T01:06:03.009Z,101404.19
2022-08-03T01:08:46.568Z,101394.22
2022-08-03T01:11:59.915Z,101393.34
2022-08-03T01:14:53.153Z,101396.22
2022-08-03T01:17:28.804Z,101391.91
2022-08-03T01:20:06.793Z,101391.63
2022-08-03T01:22:42.145Z,101388.88
2022-08-03T01:25:11.362Z,101380.66
2022-08-03T01:27:58.796Z,101388.16
2022-08-03T01:30:30.087Z,101392.03
2022-08-03T01:33:03.266Z,101390.47
2022-08-03T01:35:44.678Z,101392.47
2022-08-03T01:38:22.405Z,101389.16
2022-08-03T01:40:53.917Z,101389.28
2022-08-03T01:44:26.485Z,101392.00
2022-08-03T01:46:11.583Z,101392.00
2022-08-03T01:48:39.962Z,101387.56
2022-08-03T01:51:08.908Z,101384.09
2022-08-03T01:53:36.853Z,101379.63
2022-08-03T01:56:06.174Z,101376.88
2022-08-03T01:58:35.280Z,101373.41
2022-08-03T02:01:03.595Z,101371.72
2022-08-03T02:03:31.737Z,101374.44
2022-08-03T02:06:56.804Z,101371.97
2022-08-03T02:08:48.298Z,101368.25
2022-08-03T02:11:15.396Z,101372.97
2022-08-03T02:13:43.559Z,101369.50
2022-08-03T02:16:12.537Z,101369.94
2022-08-03T02:18:40.832Z,101371.81
2022-08-03T02:21:11.012Z,101371.50
2022-08-03T02:23:38.821Z,101370.78
2022-08-03T02:26:09.444Z,101374.81
2022-08-03T02:28:39.971Z,101361.13
2022-08-03T02:31:15.381Z,101365.59
2022-08-03T02:33:47.837Z,101361.84
2022-08-03T02:36:15.748Z,101367.47
2022-08-03T02:38:44.833Z,101363.84
2022-08-03T02:41:18.104Z,101362.16
2022-08-03T02:44:06.696Z,101366.41
2022-08-03T02:46:38.431Z,101355.78
2022-08-03T02:49:40.888Z,101355.28
2022-08-03T02:51:55.237Z,101356.25
2022-08-03T02:54:23.425Z,101358.28
2022-08-03T02:56:51.578Z,101360.28
2022-08-03T02:59:19.468Z,101359.16
2022-08-03T03:01:46.724Z,101354.69
2022-08-03T03:04:14.337Z,101354.56
2022-08-03T03:06:42.660Z,101359.41
2022-08-03T03:09:11.537Z,101352.25
2022-08-03T03:11:39.031Z,101350.50
2022-08-03T03:14:05.981Z,101358.69
2022-08-03T03:16:36.372Z,101353.22
2022-08-03T03:19:03.170Z,101355.97
2022-08-03T03:21:31.099Z,101347.88
2022-08-03T03:23:57.969Z,101351.34
2022-08-03T03:26:24.464Z,101348.19
2022-08-03T03:28:50.937Z,101348.19
2022-08-03T03:31:17.598Z,101351.91
2022-08-03T03:33:44.694Z,101352.91
2022-08-03T03:36:11.256Z,101355.66
2022-08-03T03:38:37.725Z,101353.78
2022-08-03T03:41:04.940Z,101355.66
2022-08-03T03:43:31.979Z,101362.09
2022-08-03T03:45:59.311Z,101355.91
2022-08-03T03:48:26.250Z,101354.94
2022-08-03T03:50:53.320Z,101360.66
2022-08-03T03:53:20.482Z,101360.66
2022-08-03T03:55:59.179Z,101353.31
2022-08-03T03:58:28.874Z,101354.94
2022-08-03T04:00:55.493Z,101358.38
2022-08-03T04:03:22.049Z,101360.84
2022-08-03T04:06:07.267Z,101366.28
2022-08-03T04:08:52.141Z,101375.22
2022-08-03T04:11:30.437Z,101370.50
2022-08-03T04:14:19.279Z,101369.50
2022-08-03T04:17:06.432Z,101375.28
2022-08-03T04:19:41.790Z,101381.38
2022-08-03T04:22:14.167Z,101375.91
2022-08-03T04:25:06.401Z,101377.50
2022-08-03T04:27:38.098Z,101381.56
2022-08-03T04:30:06.830Z,101373.81
2022-08-03T04:32:34.087Z,101376.25
2022-08-03T04:35:00.574Z,101386.22
2022-08-03T04:37:39.916Z,101375.13
2022-08-03T04:40:10.806Z,101378.44
2022-08-03T04:42:39.503Z,101378.16
2022-08-03T04:45:07.983Z,101375.16
2022-08-03T04:47:35.701Z,101381.78
2022-08-03T04:50:03.734Z,101385.72
2022-08-03T04:52:30.712Z,101373.47
2022-08-03T04:54:57.791Z,101375.91
2022-08-03T04:57:24.439Z,101376.38
2022-08-03T05:00:01.405Z,101373.19
2022-08-03T05:02:29.049Z,101374.25
2022-08-03T05:04:55.462Z,101376.41
2022-08-03T05:07:25.023Z,101377.56
2022-08-03T05:09:52.736Z,101386.22
2022-08-03T05:12:19.451Z,101381.94
2022-08-03T05:14:45.846Z,101387.44
2022-08-03T05:17:12.228Z,101390.56
2022-08-03T05:19:38.625Z,101390.31
2022-08-03T05:22:05.087Z,101391.16
2022-08-03T05:24:31.495Z,101396.06
2022-08-03T05:26:57.928Z,101397.34
2022-08-03T05:29:24.366Z,101394.75
2022-08-03T05:31:50.842Z,101397.50
2022-08-03T05:34:17.289Z,101393.75
2022-08-03T05:36:43.747Z,101390.44
2022-08-03T05:39:10.154Z,101389.13
2022-08-03T05:41:37.563Z,101399.50
2022-08-03T05:44:04.688Z,101398.66
2022-08-03T05:46:31.197Z,101402.84
2022-08-03T05:48:57.695Z,101404.41
2022-08-03T05:51:24.208Z,101401.06
2022-08-03T05:53:50.681Z,101396.88
2022-08-03T05:56:17.235Z,101403.94
2022-08-03T05:58:45.357Z,101398.91
2022-08-03T06:01:11.973Z,101396.59
2022-08-03T06:03:38.511Z,101393.41
2022-08-03T06:06:05.024Z,101402.63
2022-08-03T06:08:31.497Z,101392.94
2022-08-03T06:10:58.776Z,101390.78
2022-08-03T06:13:25.233Z,101389.34
2022-08-03T06:15:51.637Z,101398.28
2022-08-03T06:18:18.097Z,101399.38
2022-08-03T06:20:44.559Z,101405.72
2022-08-03T06:23:16.226Z,101410.03
2022-08-03T06:25:44.756Z,101395.69
2022-08-03T06:28:35.428Z,101400.50
2022-08-03T06:31:00.877Z,101396.31
2022-08-03T06:34:31.327Z,101382.84
2022-08-03T06:36:13.745Z,101385.69
2022-08-03T06:38:40.157Z,101386.31
2022-08-03T06:41:06.549Z,101392.28
2022-08-03T06:43:37.844Z,101398.09
2022-08-03T06:46:06.023Z,101397.84
2022-08-03T06:48:32.715Z,101394.84
2022-08-03T06:50:59.311Z,101405.03
2022-08-03T06:53:26.098Z,101406.75
2022-08-03T06:55:54.852Z,101406.59
2022-08-03T06:58:22.005Z,101406.38
2022-08-03T07:00:48.462Z,101409.50
2022-08-03T07:03:15.097Z,101415.38
2022-08-03T07:05:43.435Z,101411.09
2022-08-03T07:08:10.130Z,101415.47
2022-08-03T07:10:37.034Z,101418.47
2022-08-03T07:13:03.998Z,101417.09
2022-08-03T07:15:53.687Z,101417.44
2022-08-03T07:18:17.583Z,101431.31
2022-08-03T07:20:55.586Z,101425.97
2022-08-03T07:23:22.305Z,101428.38
2022-08-03T07:25:48.711Z,101425.47
2022-08-03T07:28:15.229Z,101435.16
2022-08-03T07:30:41.618Z,101431.06
2022-08-03T07:33:08.024Z,101440.00
2022-08-03T07:35:34.542Z,101440.63
2022-08-03T07:38:01.067Z,101447.88
2022-08-03T07:40:31.599Z,101454.00
2022-08-03T07:42:58.720Z,101450.97
2022-08-03T07:45:26.464Z,101446.75
2022-08-03T07:47:53.917Z,101453.66
2022-08-03T07:50:20.919Z,101454.97
2022-08-03T07:52:50.781Z,101450.63
2022-08-03T07:55:22.986Z,101455.84
2022-08-03T07:58:07.579Z,101448.75
2022-08-03T08:00:34.100Z,101465.41
2022-08-03T08:03:00.756Z,101454.66
2022-08-03T08:05:28.160Z,101453.28
2022-08-03T08:07:54.834Z,101457.06
2022-08-03T08:10:21.735Z,101457.50
2022-08-03T08:12:48.876Z,101455.25
2022-08-03T08:15:15.434Z,101456.91
2022-08-03T08:17:44.199Z,101465.31
2022-08-03T08:20:15.345Z,101466.34
2022-08-03T08:22:45.346Z,101459.66
2022-08-03T08:25:13.020Z,101463.78
2022-08-03T08:28:29.284Z,101468.34
2022-08-03T08:30:34.911Z,101467.59
2022-08-03T08:33:01.726Z,101468.47
2022-08-03T08:35:28.195Z,101469.25
2022-08-03T08:37:54.677Z,101469.41
2022-08-03T08:40:22.588Z,101467.22
2022-08-03T08:42:58.406Z,101468.78
2022-08-03T08:45:26.184Z,101471.84
2022-08-03T08:47:59.905Z,101479.63
2022-08-03T08:50:29.649Z,101474.47
2022-08-03T08:52:58.693Z,101482.78
2022-08-03T08:55:25.335Z,101478.28
2022-08-03T08:58:05.031Z,101488.91
2022-08-03T09:00:32.461Z,101485.94
2022-08-03T09:03:00.653Z,101481.69
2022-08-03T09:05:53.926Z,101477.75
2022-08-03T09:08:14.204Z,101480.44
2022-08-03T09:10:40.650Z,101483.00
2022-08-03T09:13:07.957Z,101485.84
2022-08-03T09:15:34.585Z,101488.75
2022-08-03T09:18:03.115Z,101485.91
2022-08-03T09:20:32.450Z,101498.50
2022-08-03T09:23:26.335Z,101493.22
2022-08-03T09:26:00.138Z,101490.47
2022-08-03T09:29:00.614Z,101498.19
2022-08-03T09:31:30.049Z,101493.22
2022-08-03T09:33:59.835Z,101493.69
2022-08-03T09:36:37.268Z,101499.19
2022-08-03T09:39:06.534Z,101500.53
2022-08-03T09:41:33.918Z,101512.16
2022-08-03T09:44:00.408Z,101517.09
2022-08-03T09:46:31.647Z,101515.28
2022-08-03T09:49:12.130Z,101518.59
2022-08-03T09:52:31.606Z,101514.69
2022-08-03T09:54:27.994Z,101518.03
2022-08-03T09:56:54.696Z,101517.97
2022-08-03T09:59:32.378Z,101514.34
2022-08-03T10:02:00.637Z,101527.00
2022-08-03T10:04:27.881Z,101526.09
2022-08-03T10:07:06.632Z,101519.97
2022-08-03T10:09:33.266Z,101520.84
2022-08-03T10:12:08.310Z,101524.22
2022-08-03T10:14:37.888Z,101517.22
2022-08-03T10:17:04.433Z,101523.13
2022-08-03T10:19:31.099Z,101521.22
2022-08-03T10:22:03.255Z,101527.69
2022-08-03T10:24:31.523Z,101526.00
2022-08-03T10:27:07.101Z,101529.88
2022-08-03T10:29:45.255Z,101525.50
2022-08-03T10:32:21.511Z,101522.81
2022-08-03T10:34:50.975Z,101519.41
2022-08-03T10:37:30.421Z,101529.44
2022-08-03T10:39:59.834Z,101515.13
2022-08-03T10:42:28.219Z,101521.56
2022-08-03T10:45:23.643Z,101529.78
2022-08-03T10:47:52.600Z,101527.63
2022-08-03T10:50:19.499Z,101523.69
2022-08-03T10:53:06.954Z,101529.88
2022-08-03T10:56:00.640Z,101526.09
2022-08-03T10:58:37.402Z,101532.59
2022-08-03T11:01:12.947Z,101524.47
2022-08-03T11:03:54.405Z,101528.47
2022-08-03T11:06:27.374Z,101522.00
2022-08-03T11:09:09.905Z,101510.03
2022-08-03T11:11:44.137Z,101506.06
2022-08-03T11:14:13.449Z,101511.88
2022-08-03T11:16:46.713Z,101504.00
2022-08-03T11:19:16.344Z,101505.31
2022-08-03T11:21:51.828Z,101511.75
2022-08-03T11:24:36.289Z,101510.72
2022-08-03T11:27:18.352Z,101508.50
2022-08-03T11:30:00.162Z,101510.88
2022-08-03T11:32:39.908Z,101509.41
2022-08-03T11:35:24.089Z,101517.72
2022-08-03T11:38:05.920Z,101510.34
2022-08-03T11:40:50.396Z,101509.50
2022-08-03T11:43:30.435Z,101513.53
2022-08-03T11:46:06.366Z,101508.31
2022-08-03T11:48:44.492Z,101517.94
2022-08-03T11:51:25.989Z,101516.16
2022-08-03T11:53:56.858Z,101515.19
2022-08-03T11:56:23.733Z,101519.06
2022-08-03T11:59:01.264Z,101511.63
2022-08-03T12:01:41.957Z,101519.19
2022-08-03T12:04:08.445Z,101519.75
2022-08-03T12:06:54.843Z,101518.94
2022-08-03T12:09:21.880Z,101520.78
2022-08-03T12:11:59.481Z,101518.06
2022-08-03T12:14:48.492Z,101519.09
2022-08-03T12:17:14.634Z,101525.75
2022-08-03T12:19:44.964Z,101508.50
2022-08-03T12:22:11.407Z,101517.25
2022-08-03T12:24:46.758Z,101517.81
2022-08-03T12:27:23.416Z,101515.03
2022-08-03T12:29:57.286Z,101514.00
2022-08-03T12:32:26.226Z,101516.50
2022-08-03T12:34:52.624Z,101510.13
2022-08-03T12:37:22.624Z,101503.38
2022-08-03T12:40:00.608Z,101496.50
2022-08-03T12:42:37.041Z,101491.16
2022-08-03T12:45:20.308Z,101506.63
2022-08-03T12:47:58.324Z,101504.72
2022-08-03T12:50:33.707Z,101502.06
2022-08-03T12:53:03.084Z,101504.56
2022-08-03T12:55:56.221Z,101504.13
2022-08-03T12:58:34.194Z,101494.47
2022-08-03T13:01:05.244Z,101504.16
2022-08-03T13:03:42.787Z,101490.50
2022-08-03T13:06:14.644Z,101491.38
2022-08-03T13:08:41.410Z,101493.72
2022-08-03T13:11:21.573Z,101488.88
2022-08-03T13:13:48.517Z,101487.13
2022-08-03T13:16:19.193Z,101486.34
2022-08-03T13:18:48.899Z,101486.69
2022-08-03T13:21:16.450Z,101490.22
2022-08-03T13:23:43.306Z,101494.06
2022-08-03T13:26:10.492Z,101499.13
2022-08-03T13:28:39.671Z,101502.47
2022-08-03T13:31:07.112Z,101507.53
2022-08-03T13:33:34.120Z,101511.88
2022-08-03T13:36:00.504Z,101515.78
2022-08-03T13:38:27.297Z,101512.38
2022-08-03T13:40:55.056Z,101512.00
2022-08-03T13:43:23.485Z,101512.28
2022-08-03T13:45:53.529Z,101513.03
2022-08-03T13:48:37.197Z,101509.63
2022-08-03T13:51:22.011Z,101508.28
2022-08-03T13:53:51.081Z,101508.63
2022-08-03T13:56:17.619Z,101509.06
2022-08-03T13:58:44.119Z,101493.88
2022-08-03T14:01:11.228Z,101503.50
2022-08-03T14:03:37.690Z,101502.19
2022-08-03T14:06:04.189Z,101501.69
2022-08-03T14:08:30.591Z,101502.72
2022-08-03T14:10:57.017Z,101492.72
2022-08-03T14:13:25.012Z,101500.72
2022-08-03T14:15:51.925Z,101492.41
2022-08-03T14:18:29.062Z,101494.47
2022-08-03T14:21:05.443Z,101501.34
2022-08-03T14:23:34.284Z,101492.38
2022-08-03T14:26:01.168Z,101501.16
2022-08-03T14:28:28.602Z,101493.00
2022-08-03T14:30:56.054Z,101483.38
2022-08-03T14:33:22.865Z,101474.56
2022-08-03T14:35:49.776Z,101472.16
2022-08-03T14:38:16.483Z,101465.75
2022-08-03T14:40:44.720Z,101474.13
2022-08-03T14:43:11.172Z,101475.63
2022-08-03T14:45:38.657Z,101481.34
2022-08-03T14:50:34.482Z,101476.72
2022-08-03T14:50:52.852Z,101467.69
2022-08-03T14:53:19.652Z,101460.47
2022-08-03T14:55:50.860Z,101454.94
2022-08-03T14:58:22.502Z,101457.75
2022-08-03T15:00:50.888Z,101463.06
2022-08-03T15:03:21.364Z,101467.56
2022-08-03T15:05:47.814Z,101471.53
2022-08-03T15:08:14.289Z,101468.28
2022-08-03T15:10:44.869Z,101477.41
2022-08-03T15:13:13.174Z,101474.31
2022-08-03T15:15:40.316Z,101479.06
2022-08-03T15:18:07.250Z,101478.81
2022-08-03T15:20:43.667Z,101479.72
2022-08-03T15:23:11.727Z,101479.50
2022-08-03T15:26:28.282Z,101471.59
2022-08-03T15:28:24.813Z,101470.59
2022-08-03T15:30:52.849Z,101470.66
2022-08-03T15:33:19.375Z,101468.44
2022-08-03T15:35:47.307Z,101466.44
2022-08-03T15:38:13.732Z,101468.91
2022-08-03T15:40:40.147Z,101466.41
2022-08-03T15:43:06.758Z,101455.03
2022-08-03T15:45:36.402Z,101457.91
2022-08-03T15:48:05.679Z,101459.41
2022-08-03T15:50:32.684Z,101460.78
2022-08-03T15:52:59.094Z,101450.28
2022-08-03T15:55:25.701Z,101447.44
2022-08-03T15:59:04.723Z,101446.88
2022-08-03T16:00:38.768Z,101443.50
2022-08-03T16:03:05.320Z,101444.50
2022-08-03T16:05:32.070Z,101443.34
2022-08-03T16:08:04.295Z,101438.31
2022-08-03T16:10:32.631Z,101438.44
2022-08-03T16:12:59.951Z,101437.31
2022-08-03T16:15:26.617Z,101444.97
2022-08-03T16:17:53.025Z,101441.09
2022-08-03T16:20:30.778Z,101433.28
2022-08-03T16:23:10.763Z,101434.63
2022-08-03T16:25:42.137Z,101433.47
2022-08-03T16:28:13.751Z,101438.47
2022-08-03T16:30:42.664Z,101429.56
2022-08-03T16:33:09.774Z,101431.44
2022-08-03T16:35:38.541Z,101425.50
2022-08-03T16:38:09.973Z,101423.34
2022-08-03T16:40:37.996Z,101430.81
2022-08-03T16:43:18.108Z,101429.09
2022-08-03T16:45:46.308Z,101420.13
2022-08-03T16:48:12.730Z,101426.63
2022-08-03T16:50:39.165Z,101409.81
2022-08-03T16:53:09.117Z,101415.03
2022-08-03T16:55:51.590Z,101419.81
2022-08-03T16:58:34.222Z,101420.16
2022-08-03T17:01:20.919Z,101417.69
2022-08-03T17:04:02.789Z,101417.06
2022-08-03T17:06:35.048Z,101408.63
2022-08-03T17:09:10.862Z,101406.69
2022-08-03T17:11:46.648Z,101405.44
2022-08-03T17:14:14.788Z,101398.84
2022-08-03T17:16:45.073Z,101411.81
2022-08-03T17:19:21.447Z,101409.50
2022-08-03T17:21:57.990Z,101406.97
2022-08-03T17:24:41.584Z,101405.81
2022-08-03T17:28:41.997Z,101396.28
2022-08-03T17:30:07.672Z,101393.22
2022-08-03T17:32:37.167Z,101399.00
2022-08-03T17:35:10.657Z,101399.78
2022-08-03T17:37:57.431Z,101392.59
2022-08-03T17:40:24.339Z,101396.63
2022-08-03T17:42:52.454Z,101387.59
2022-08-03T17:45:19.795Z,101394.88
2022-08-03T17:47:57.634Z,101384.59
2022-08-03T17:50:33.127Z,101388.19
2022-08-03T17:53:07.624Z,101386.22
2022-08-03T17:56:04.337Z,101390.19
2022-08-03T17:58:52.497Z,101394.94
2022-08-03T18:02:02.632Z,101390.19
2022-08-03T18:04:33.389Z,101384.00
2022-08-03T18:07:11.245Z,101382.63
2022-08-03T18:10:06.831Z,101383.78
2022-08-03T18:12:42.471Z,101371.50
2022-08-03T18:15:21.366Z,101379.66
2022-08-03T18:17:58.246Z,101387.44
2022-08-03T18:20:32.670Z,101377.53
2022-08-03T18:23:05.815Z,101384.53
2022-08-03T18:25:44.384Z,101378.06
2022-08-03T18:28:16.246Z,101377.56
2022-08-03T18:30:54.451Z,101372.63
2022-08-03T18:34:17.324Z,101372.22
2022-08-03T18:36:22.123Z,101372.09
2022-08-03T18:38:58.364Z,101380.50
2022-08-03T18:41:33.240Z,101380.31
2022-08-03T18:44:08.747Z,101375.50
2022-08-03T18:47:16.374Z,101381.50
2022-08-03T18:49:58.688Z,101376.41
2022-08-03T18:52:37.335Z,101381.63
2022-08-03T18:58:18.421Z,101378.72
2022-08-03T19:00:58.456Z,101376.09
2022-08-03T19:09:12.987Z,101376.72
2022-08-03T19:12:12.593Z,101372.47
2022-08-03T19:14:42.457Z,101378.22
2022-08-03T19:17:11.480Z,101377.78
2022-08-03T19:19:44.941Z,101372.50
2022-08-03T19:22:12.768Z,101373.28
2022-08-03T19:24:45.329Z,101378.72
2022-08-03T19:27:20.240Z,101368.69
2022-08-03T19:29:59.560Z,101377.66
2022-08-03T19:32:31.418Z,101381.72
2022-08-03T19:34:59.807Z,101380.19
2022-08-03T19:37:38.526Z,101379.72
2022-08-03T19:40:12.225Z,101387.28
2022-08-03T19:42:44.811Z,101386.88
2022-08-03T19:45:18.371Z,101390.66
2022-08-03T19:47:51.480Z,101386.63
2022-08-03T19:50:20.352Z,101383.75
2022-08-03T19:52:48.182Z,101381.03
2022-08-03T19:55:18.879Z,101380.47
2022-08-03T19:57:50.393Z,101374.84
2022-08-03T20:00:19.878Z,101377.72
2022-08-03T20:02:52.831Z,101372.53
2022-08-03T20:05:19.321Z,101366.59
2022-08-03T20:07:47.892Z,101370.25
2022-08-03T20:10:16.719Z,101363.63
2022-08-03T20:12:44.284Z,101371.41
2022-08-03T20:15:11.959Z,101372.03
2022-08-03T20:17:55.995Z,101368.84
2022-08-03T20:20:35.436Z,101367.69
2022-08-03T20:23:18.179Z,101364.13
2022-08-03T20:25:58.307Z,101360.25
2022-08-03T20:28:32.635Z,101362.28
2022-08-03T20:31:00.006Z,101362.56
2022-08-03T20:33:36.390Z,101361.84
2022-08-03T20:36:17.695Z,101361.13
2022-08-03T20:38:46.985Z,101355.66
2022-08-03T20:41:15.607Z,101362.59
2022-08-03T20:43:42.118Z,101361.88
2022-08-03T20:46:31.963Z,101366.50
2022-08-03T20:49:00.276Z,101360.56
2022-08-03T20:51:50.317Z,101359.00
2022-08-03T20:54:29.838Z,101356.00
2022-08-03T20:57:00.484Z,101363.19
2022-08-03T20:59:38.509Z,101357.13
2022-08-03T21:02:19.762Z,101356.56
2022-08-03T21:04:55.822Z,101351.38
2022-08-03T21:07:24.188Z,101349.06
2022-08-03T21:09:53.145Z,101351.22
2022-08-03T21:13:01.259Z,101372.09
2022-08-03T21:13:09.723Z,101380.53
2022-08-03T21:13:10.956Z,101377.66
2022-08-03T21:13:13.254Z,101341.00
2022-08-03T21:16:02.601Z,101338.41
2022-08-03T21:18:34.582Z,101338.84
2022-08-03T21:21:01.297Z,101343.13
2022-08-03T21:23:39.926Z,101337.63
2022-08-03T21:26:17.353Z,101331.44
2022-08-03T21:28:46.526Z,101336.19
2022-08-03T21:31:14.082Z,101332.16
2022-08-03T21:33:41.700Z,101333.31
2022-08-03T21:36:16.673Z,101324.38
2022-08-03T21:38:44.006Z,101327.97
2022-08-03T21:41:14.076Z,101329.59
2022-08-03T21:43:40.502Z,101332.88
2022-08-03T21:46:07.539Z,101328.44
2022-08-03T21:48:40.136Z,101318.91
2022-08-03T21:51:09.002Z,101322.81
2022-08-03T21:54:02.491Z,101323.78
2022-08-03T21:56:23.651Z,101321.34
2022-08-03T21:59:04.500Z,101332.56
2022-08-03T22:01:35.431Z,101317.91
2022-08-03T22:04:07.182Z,101323.06
2022-08-03T22:06:35.924Z,101324.66
2022-08-03T22:09:05.476Z,101323.94
2022-08-03T22:11:34.264Z,101313.41
2022-08-03T22:14:01.976Z,101317.91
2022-08-03T22:16:29.191Z,101319.91
2022-08-03T22:18:55.627Z,101321.19
2022-08-03T22:21:27.953Z,101322.19
2022-08-03T22:24:04.921Z,101314.13
2022-08-03T22:26:35.359Z,101319.00
2022-08-03T22:29:07.195Z,101314.97
2022-08-03T22:31:57.362Z,101310.66
2022-08-03T22:34:26.786Z,101320.59
2022-08-03T22:36:57.188Z,101314.09
2022-08-03T22:39:28.369Z,101309.94
2022-08-03T22:41:59.107Z,101312.22
2022-08-03T22:44:29.414Z,101314.97
2022-08-03T22:46:56.724Z,101314.69
2022-08-03T22:49:24.274Z,101313.72
2022-08-03T22:51:51.752Z,101312.09
2022-08-03T22:54:18.892Z,101313.25
2022-08-03T22:56:50.041Z,101320.59
2022-08-03T22:59:40.633Z,101316.00
2022-08-03T23:02:20.600Z,101319.59
2022-08-03T23:04:54.787Z,101316.41
2022-08-03T23:07:49.239Z,101314.69
2022-08-03T23:10:15.764Z,101317.53
2022-08-03T23:12:43.705Z,101319.00
2022-08-03T23:15:12.625Z,101312.94
2022-08-03T23:17:58.160Z,101315.94
2022-08-03T23:20:26.917Z,101316.06
2022-08-03T23:22:55.674Z,101307.31
2022-08-03T23:25:22.641Z,101310.31
2022-08-03T23:28:05.346Z,101311.16
2022-08-03T23:30:37.187Z,101314.06
2022-08-03T23:33:04.298Z,101312.34
2022-08-03T23:36:28.962Z,101311.16
2022-08-03T23:38:37.209Z,101311.00
2022-08-03T23:41:04.812Z,101310.53
2022-08-03T23:43:45.151Z,101311.66
2022-08-03T23:46:19.675Z,101309.34
2022-08-03T23:48:46.196Z,101309.47
2022-08-03T23:51:35.276Z,101303.28
2022-08-03T23:54:09.888Z,101306.16
2022-08-03T23:56:41.888Z,101314.94
2022-08-03T23:59:24.163Z,101307.91
